Ana Sayfa
METAR-TAF:

METAR-TAF

Havaalanları :

Penn Valley Airport

Selinsgrove, Pensilvanya, Amerika Birleşik Devletleri

Enlem: 40-49-09N, Boylam: 076-51-58W, yükseklik: 137 m

Güncel hava durumu gözlemi

Rapor saat 22:53 UTC de 22 dakika önce yapıldı.
Sakin rüzgar
Sıcaklık 9°C
Nem 93%
Basınç 1017 hPa
Görüş mesafesi: 16.1 km
4800 ft yükseklikte parçalı çok bulutlu
8500 ft yükseklikte parçalı çok bulutlu

METAR: KSEG 232253Z AUTO 00000KT 10SM BKN048 BKN085 09/08 A3002 RMK AO2 SLP165 T00940078 $

Saat: 19:15 (23:15 UTC)


TAF: eksik

4.000'den fazla havaalanı için hava durumu gözlemleri ve tahminleri (METAR ve TAF raporları).

Kullanılabilir istasyonlar harita üzerinde sarı ve kırmızı noktalarla gösterilir.

İstasyonun adını görmek için fareyi noktanın üzerinde gezdirin.

Sonrasında hava gözlem ve tahminlerini görmek için tıklayın.

Haritayı değiştirmek için: yaklaştırmak için siyah artı işaretli yeşil düğmeye ve uzaklaştırmak için de eksi işaretli düğmeye hızla tıklayın; bitişik haritalar için yeşil okları kullanın.


METAR-TAF: